Time;durP1;ratioP1;P1;durP2;ratioP2;P2;SDS_P1;SDS_P2;PMS_P1;PMS_P2;Temp;Humidity;BMP_temperature;BMP_pressure;BME280_temperature;BME280_humidity;BME280_pressure;Samples;Min_cycle;Max_cycle;Signal;HPM_P1;HPM_P2
2023/03/12 00:02:10;;;;;;;4.30;1.97;;;1.40;99.90;;;;;;5056635;28;20202;-80
2023/03/12 00:04:36;;;;;;;4.03;1.73;;;1.40;99.90;;;;;;5053483;28;20282;-78
2023/03/12 00:07:02;;;;;;;4.80;1.73;;;1.40;99.90;;;;;;5049225;28;20288;-79
2023/03/12 00:09:28;;;;;;;5.67;1.70;;;1.40;99.90;;;;;;5066941;28;20229;-77
2023/03/12 00:11:54;;;;;;;4.30;1.80;;;1.40;99.90;;;;;;5052105;28;20211;-79
2023/03/12 00:14:19;;;;;;;4.80;2.07;;;1.40;99.90;;;;;;5069518;28;20223;-76
2023/03/12 00:16:45;;;;;;;5.47;1.97;;;1.40;99.90;;;;;;5071077;28;20201;-77
2023/03/12 00:19:12;;;;;;;6.70;2.00;;;1.40;99.90;;;;;;5058645;28;20208;-79
2023/03/12 00:21:38;;;;;;;7.20;1.60;;;1.40;99.90;;;;;;5052404;28;20625;-78
2023/03/12 00:24:04;;;;;;;4.93;1.67;;;1.40;99.90;;;;;;5071810;28;20583;-80
2023/03/12 00:26:30;;;;;;;4.47;1.90;;;1.40;99.90;;;;;;5057981;28;20215;-80
2023/03/12 00:28:56;;;;;;;6.47;2.13;;;1.40;99.90;;;;;;5072244;28;20207;-78
2023/03/12 00:31:27;;;;;;;5.90;2.07;;;1.40;99.90;;;;;;5082601;28;20175;-79
2023/03/12 00:33:54;;;;;;;6.63;1.70;;;1.40;99.90;;;;;;5058256;28;20726;-80
2023/03/12 00:36:23;;;;;;;6.80;1.90;;;1.40;99.90;;;;;;5078540;28;20211;-81
2023/03/12 00:38:50;;;;;;;4.63;1.80;;;1.40;99.90;;;;;;5067194;28;20215;-80
2023/03/12 00:41:18;;;;;;;6.73;1.83;;;1.40;99.90;;;;;;5052875;28;20215;-80
2023/03/12 00:43:47;;;;;;;3.00;1.63;;;1.40;99.90;;;;;;5056193;28;20175;-78
2023/03/12 00:46:13;;;;;;;4.47;2.00;;;1.40;99.90;;;;;;5074070;28;20240;-79
2023/03/12 00:48:39;;;;;;;3.87;1.73;;;1.40;99.90;;;;;;5061168;28;20294;-79
2023/03/12 00:51:05;;;;;;;6.40;2.00;;;1.40;99.90;;;;;;5086251;28;20207;-79
2023/03/12 00:53:31;;;;;;;4.17;1.90;;;1.40;99.90;;;;;;5092161;28;20297;-80
2023/03/12 00:55:56;;;;;;;3.23;1.67;;;1.50;99.90;;;;;;5055976;28;20305;-80
2023/03/12 00:58:22;;;;;;;7.60;2.83;;;1.50;99.90;;;;;;5059278;28;20334;-78
2023/03/12 01:00:48;;;;;;;7.07;2.70;;;1.70;99.90;;;;;;5073245;28;20209;-75
2023/03/12 01:03:14;;;;;;;5.90;1.77;;;2.10;99.90;;;;;;5063683;28;20218;-79
2023/03/12 01:05:39;;;;;;;4.97;1.77;;;2.10;99.90;;;;;;5073581;28;20230;-78
2023/03/12 01:08:09;;;;;;;7.30;2.37;;;2.00;99.90;;;;;;5054306;28;20207;-79
2023/03/12 01:10:35;;;;;;;7.00;1.43;;;2.00;99.90;;;;;;5055338;28;20239;-78
2023/03/12 01:13:01;;;;;;;4.17;1.97;;;2.00;99.90;;;;;;5069041;28;20226;-78
2023/03/12 01:15:27;;;;;;;6.63;2.47;;;2.00;99.90;;;;;;5071198;28;20644;-78
2023/03/12 01:17:53;;;;;;;5.07;1.67;;;2.00;99.90;;;;;;5073414;28;20222;-78
2023/03/12 01:20:19;;;;;;;4.40;1.83;;;2.00;99.90;;;;;;5055419;28;20226;-77
2023/03/12 01:22:44;;;;;;;6.37;1.83;;;2.00;99.90;;;;;;5058426;28;20175;-77
2023/03/12 01:25:11;;;;;;;5.53;1.93;;;2.10;99.90;;;;;;5058598;28;20207;-78
2023/03/12 01:27:36;;;;;;;6.53;2.03;;;2.10;99.90;;;;;;5057908;28;20210;-78
2023/03/12 01:30:04;;;;;;;4.83;2.00;;;2.00;99.90;;;;;;5055380;28;20751;-79
2023/03/12 01:32:29;;;;;;;4.50;1.70;;;2.00;99.90;;;;;;5067098;28;20595;-78
2023/03/12 01:34:57;;;;;;;5.33;2.30;;;1.90;99.90;;;;;;5064727;28;20285;-78
2023/03/12 01:37:23;;;;;;;4.10;1.90;;;1.90;99.90;;;;;;5061557;28;20282;-78
2023/03/12 01:39:49;;;;;;;7.97;1.90;;;1.80;99.90;;;;;;5068001;28;20747;-78
2023/03/12 01:42:14;;;;;;;5.87;1.90;;;1.80;99.90;;;;;;5060765;28;20221;-78
2023/03/12 01:44:50;;;;;;;4.43;2.00;;;1.80;99.90;;;;;;5063747;28;20206;-78
2023/03/12 01:47:16;;;;;;;6.33;1.83;;;1.80;99.90;;;;;;5073854;28;20289;-78
2023/03/12 01:49:42;;;;;;;7.20;2.23;;;1.90;99.90;;;;;;5062948;28;20736;-78
2023/03/12 01:52:18;;;;;;;6.13;2.10;;;1.90;99.90;;;;;;5063547;28;20241;-77
2023/03/12 01:54:48;;;;;;;2.33;1.50;;;2.00;99.90;;;;;;5057243;28;20301;-78
2023/03/12 01:57:19;;;;;;;4.30;1.80;;;2.00;99.90;;;;;;5075260;28;20260;-77
2023/03/12 01:59:51;;;;;;;6.93;1.70;;;2.00;99.90;;;;;;5054922;28;20203;-75
2023/03/12 02:02:22;;;;;;;6.20;2.07;;;2.00;99.90;;;;;;5065878;28;20308;-77
2023/03/12 02:04:50;;;;;;;5.70;1.77;;;2.00;99.90;;;;;;5067235;28;20709;-77
2023/03/12 02:07:16;;;;;;;4.37;1.70;;;2.10;99.90;;;;;;5060409;28;20186;-77
2023/03/12 02:09:46;;;;;;;7.23;2.50;;;2.00;99.90;;;;;;5059645;28;20643;-76
2023/03/12 02:12:12;;;;;;;4.07;2.30;;;2.10;99.90;;;;;;5067518;28;20212;-77
2023/03/12 02:14:38;;;;;;;4.53;2.73;;;2.10;99.90;;;;;;5066377;28;20595;-77
2023/03/12 02:17:04;;;;;;;8.30;2.63;;;2.10;99.90;;;;;;5074654;28;20186;-76
2023/03/12 02:19:42;;;;;;;5.27;2.03;;;2.10;99.90;;;;;;5059565;28;20190;-77
2023/03/12 02:22:09;;;;;;;5.37;2.20;;;2.10;99.90;;;;;;5049254;28;20208;-75
2023/03/12 02:24:57;;;;;;;4.20;2.37;;;2.10;99.90;;;;;;5066803;28;20238;-77
2023/03/12 02:27:23;;;;;;;8.47;1.90;;;2.10;99.90;;;;;;5063347;28;20319;-77
2023/03/12 02:29:49;;;;;;;2.63;1.90;;;2.00;99.90;;;;;;5060463;28;20224;-77
2023/03/12 02:32:25;;;;;;;4.43;2.20;;;2.00;99.90;;;;;;5054832;28;20593;-76
2023/03/12 02:34:51;;;;;;;4.90;2.07;;;2.00;99.90;;;;;;5065508;28;20677;-77
2023/03/12 02:37:17;;;;;;;3.37;1.70;;;1.90;99.90;;;;;;5055686;28;20176;-76
2023/03/12 02:39:48;;;;;;;6.47;2.67;;;1.90;99.90;;;;;;5060072;28;20214;-77
2023/03/12 02:42:14;;;;;;;4.30;1.87;;;1.80;99.90;;;;;;5053496;28;20207;-76
2023/03/12 02:44:42;;;;;;;6.47;2.20;;;1.70;99.90;;;;;;5057006;28;20638;-78
2023/03/12 02:47:08;;;;;;;3.97;1.87;;;1.70;99.90;;;;;;5062700;28;20743;-77
2023/03/12 02:49:34;;;;;;;5.77;2.00;;;1.60;99.90;;;;;;5059036;28;20224;-77
2023/03/12 02:52:01;;;;;;;8.40;2.43;;;1.50;99.90;;;;;;5071258;28;20207;-77
2023/03/12 02:54:27;;;;;;;5.83;2.17;;;1.50;99.90;;;;;;5053152;28;20647;-77
2023/03/12 02:56:53;;;;;;;5.00;2.10;;;1.40;99.90;;;;;;5066164;28;20719;-78
2023/03/12 02:59:20;;;;;;;6.27;2.00;;;1.40;99.90;;;;;;5061244;28;20211;-77
2023/03/12 03:01:50;;;;;;;5.33;2.13;;;1.40;99.90;;;;;;5079501;28;20177;-75
2023/03/12 03:04:16;;;;;;;3.27;1.97;;;1.40;99.90;;;;;;5079001;28;20262;-76
2023/03/12 03:06:43;;;;;;;6.30;2.47;;;1.30;99.90;;;;;;5055758;28;20301;-77
2023/03/12 03:09:08;;;;;;;5.90;2.00;;;1.30;99.90;;;;;;5049806;28;20211;-77
2023/03/12 03:11:34;;;;;;;3.67;2.00;;;1.20;99.90;;;;;;5072283;28;20583;-76
2023/03/12 03:14:02;;;;;;;5.50;2.33;;;1.20;99.90;;;;;;5071107;28;20220;-75
2023/03/12 03:16:28;;;;;;;8.17;2.57;;;1.20;99.90;;;;;;5068810;28;20210;-77
2023/03/12 03:18:54;;;;;;;4.23;1.90;;;1.20;99.90;;;;;;5064788;28;20206;-77
2023/03/12 03:21:19;;;;;;;7.30;2.73;;;1.20;99.90;;;;;;5051640;28;20212;-76
2023/03/12 03:23:47;;;;;;;5.80;1.90;;;1.10;99.90;;;;;;5077413;28;20210;-74
2023/03/12 03:26:14;;;;;;;4.93;2.60;;;1.10;99.90;;;;;;5070110;28;20351;-77
2023/03/12 03:28:39;;;;;;;4.37;1.80;;;1.10;99.90;;;;;;5066547;28;20202;-77
2023/03/12 03:31:05;;;;;;;3.37;2.03;;;1.10;99.90;;;;;;5050399;28;20218;-77
2023/03/12 03:33:33;;;;;;;5.97;2.50;;;1.10;99.90;;;;;;5070317;28;20257;-77
2023/03/12 03:36:00;;;;;;;5.10;2.77;;;1.10;99.90;;;;;;5071173;28;20213;-77
2023/03/12 03:38:27;;;;;;;6.23;2.37;;;1.00;99.90;;;;;;5054354;28;20221;-77
2023/03/12 03:40:53;;;;;;;7.63;2.00;;;1.00;99.90;;;;;;5068162;28;20685;-77
2023/03/12 03:43:19;;;;;;;4.57;1.90;;;1.00;99.90;;;;;;5067766;28;20175;-78
2023/03/12 03:45:45;;;;;;;6.10;2.00;;;1.00;99.90;;;;;;5076010;28;20726;-75
2023/03/12 03:48:11;;;;;;;3.77;2.13;;;1.00;99.90;;;;;;5057112;28;20218;-75
2023/03/12 03:50:38;;;;;;;5.43;2.57;;;1.00;99.90;;;;;;5043301;28;20210;-78
2023/03/12 03:53:05;;;;;;;5.00;1.90;;;1.00;99.90;;;;;;5068574;28;21005;-76
2023/03/12 03:55:34;;;;;;;5.77;2.50;;;1.00;99.90;;;;;;5077392;28;20218;-78
2023/03/12 03:57:59;;;;;;;2.63;1.60;;;1.00;99.90;;;;;;5057017;28;20298;-78
2023/03/12 04:00:25;;;;;;;4.30;2.17;;;0.90;99.90;;;;;;5051388;28;20278;-78
2023/03/12 04:02:51;;;;;;;4.60;2.30;;;0.90;99.90;;;;;;5054995;28;20225;-78
2023/03/12 04:05:18;;;;;;;3.03;1.87;;;0.90;99.90;;;;;;5073426;28;20574;-77
2023/03/12 04:07:44;;;;;;;8.13;2.47;;;1.00;99.90;;;;;;5062680;28;20268;-77
2023/03/12 04:10:10;;;;;;;6.70;2.50;;;0.90;99.90;;;;;;5074392;28;20288;-76
2023/03/12 04:12:36;;;;;;;4.87;2.30;;;0.90;99.90;;;;;;5071498;28;20692;-77
2023/03/12 04:15:02;;;;;;;5.93;2.33;;;0.90;99.90;;;;;;5064274;28;20294;-77
2023/03/12 04:17:28;;;;;;;10.87;2.93;;;0.90;99.90;;;;;;5076384;28;20253;-76
2023/03/12 04:19:53;;;;;;;6.93;2.60;;;0.90;99.90;;;;;;5075786;28;20656;-78
2023/03/12 04:22:19;;;;;;;4.30;2.90;;;0.90;99.90;;;;;;5069393;28;20187;-78
2023/03/12 04:24:45;;;;;;;5.37;3.23;;;0.90;99.90;;;;;;5068091;28;20214;-77
2023/03/12 04:27:10;;;;;;;9.30;3.00;;;0.80;99.90;;;;;;5071181;28;20202;-76
2023/03/12 04:29:38;;;;;;;9.47;3.23;;;0.80;99.90;;;;;;5085015;28;20218;-76
2023/03/12 04:32:04;;;;;;;8.20;3.53;;;0.80;99.90;;;;;;5062752;28;20182;-77
2023/03/12 04:34:30;;;;;;;7.50;3.37;;;0.80;99.90;;;;;;5072612;28;20176;-77
2023/03/12 04:36:55;;;;;;;9.33;3.23;;;0.80;99.90;;;;;;5054129;28;20218;-78
2023/03/12 04:39:21;;;;;;;7.93;3.50;;;0.80;99.90;;;;;;5078050;28;20273;-77
2023/03/12 04:41:47;;;;;;;9.63;3.33;;;0.70;99.90;;;;;;5084686;28;20210;-76
2023/03/12 04:44:13;;;;;;;6.93;3.43;;;0.70;99.90;;;;;;5070704;28;20218;-78
2023/03/12 04:46:38;;;;;;;7.43;3.73;;;0.70;99.90;;;;;;5057377;28;20270;-79
2023/03/12 04:49:04;;;;;;;6.23;3.67;;;0.70;99.90;;;;;;5058336;28;20230;-79
2023/03/12 04:51:31;;;;;;;6.90;3.70;;;0.70;99.90;;;;;;5077178;28;20211;-76
2023/03/12 04:53:57;;;;;;;11.20;4.23;;;0.70;99.90;;;;;;5058579;28;20233;-78
2023/03/12 04:56:23;;;;;;;5.03;3.27;;;0.70;99.90;;;;;;5061483;28;20215;-79
2023/03/12 04:58:50;;;;;;;6.43;3.13;;;0.70;99.90;;;;;;5054998;28;20646;-80
2023/03/12 05:01:25;;;;;;;6.20;3.30;;;0.70;99.90;;;;;;5060694;28;20179;-78
2023/03/12 05:03:52;;;;;;;6.13;3.50;;;0.70;99.90;;;;;;5080356;28;20247;-78
2023/03/12 05:06:18;;;;;;;4.37;3.03;;;0.70;99.90;;;;;;5067976;28;20332;-78
2023/03/12 05:08:44;;;;;;;5.83;3.57;;;0.70;99.90;;;;;;5070514;28;20771;-78
2023/03/12 05:11:10;;;;;;;4.17;3.30;;;0.70;99.90;;;;;;5062019;28;20260;-80
2023/03/12 05:13:35;;;;;;;7.00;3.00;;;0.70;99.90;;;;;;5069221;28;20519;-80
2023/03/12 05:16:02;;;;;;;7.60;3.43;;;0.60;99.90;;;;;;5079417;28;20220;-80
2023/03/12 05:18:27;;;;;;;6.00;3.87;;;0.60;99.90;;;;;;5070358;28;20295;-79
2023/03/12 05:21:14;;;;;;;10.00;3.10;;;0.60;99.90;;;;;;5062242;28;20290;-79
2023/03/12 05:23:41;;;;;;;6.93;2.87;;;0.60;99.90;;;;;;5076021;28;20203;-79
2023/03/12 05:26:17;;;;;;;5.40;3.20;;;0.60;99.90;;;;;;5083615;28;20214;-80
2023/03/12 05:28:43;;;;;;;6.20;3.33;;;0.60;99.90;;;;;;5071847;28;20276;-79
2023/03/12 05:31:10;;;;;;;8.53;2.90;;;0.70;99.90;;;;;;5065876;28;20696;-79
2023/03/12 05:33:36;;;;;;;4.00;2.13;;;0.70;99.90;;;;;;5083867;28;20237;-80
2023/03/12 05:36:02;;;;;;;7.30;3.00;;;0.70;99.90;;;;;;5056832;28;20206;-78
2023/03/12 05:38:28;;;;;;;9.70;2.97;;;0.70;99.90;;;;;;5068899;28;20585;-79
2023/03/12 05:40:56;;;;;;;3.23;2.60;;;0.70;99.90;;;;;;5065350;28;20175;-79
2023/03/12 05:43:22;;;;;;;7.10;3.00;;;0.80;99.90;;;;;;5057950;28;20182;-78
2023/03/12 05:45:48;;;;;;;6.27;2.47;;;0.80;99.90;;;;;;5061131;28;20570;-78
2023/03/12 05:48:14;;;;;;;6.80;2.67;;;0.80;99.90;;;;;;5069246;28;20218;-77
2023/03/12 05:50:39;;;;;;;6.83;2.60;;;0.90;99.90;;;;;;5066693;28;20204;-78
2023/03/12 05:53:05;;;;;;;5.63;3.00;;;0.90;99.90;;;;;;5057532;28;20208;-77
2023/03/12 05:55:35;;;;;;;8.70;2.33;;;1.00;99.90;;;;;;5077351;28;20222;-75
2023/03/12 05:58:01;;;;;;;7.10;2.97;;;1.00;99.90;;;;;;5072861;28;20225;-78
2023/03/12 06:00:27;;;;;;;5.10;2.83;;;1.10;99.90;;;;;;5056629;28;20203;-78
2023/03/12 06:02:52;;;;;;;8.07;2.33;;;1.20;99.90;;;;;;5067005;28;20291;-77
2023/03/12 06:05:18;;;;;;;7.03;2.60;;;1.20;99.90;;;;;;5076602;28;20595;-78
2023/03/12 06:07:44;;;;;;;3.93;2.53;;;1.30;99.90;;;;;;5049805;28;20634;-79
2023/03/12 06:10:10;;;;;;;7.17;2.73;;;1.30;99.90;;;;;;5052610;28;20203;-79
2023/03/12 06:12:36;;;;;;;6.23;2.47;;;1.40;99.90;;;;;;5064807;28;20752;-78
2023/03/12 06:15:01;;;;;;;4.93;2.30;;;1.50;99.90;;;;;;5063302;28;20202;-78
2023/03/12 06:17:28;;;;;;;5.10;2.30;;;3.40;99.90;;;;;;5069479;28;20226;-79
2023/03/12 06:19:54;;;;;;;3.97;2.17;;;5.40;99.90;;;;;;5067626;28;20262;-78
2023/03/12 06:22:20;;;;;;;6.80;2.63;;;6.90;99.90;;;;;;5051342;28;20270;-78
2023/03/12 06:24:46;;;;;;;4.47;2.30;;;8.30;99.90;;;;;;5063704;28;20218;-77
2023/03/12 06:27:13;;;;;;;5.07;2.40;;;9.60;99.90;;;;;;5052475;28;20207;-79
2023/03/12 06:29:39;;;;;;;4.23;2.23;;;10.20;99.90;;;;;;5066835;28;20368;-78
2023/03/12 06:32:05;;;;;;;5.13;1.97;;;11.00;99.90;;;;;;5054516;28;20231;-77
2023/03/12 06:34:30;;;;;;;3.55;2.10;;;11.30;99.90;;;;;;5064876;28;20182;-79
2023/03/12 06:36:56;;;;;;;4.20;2.15;;;11.40;99.90;;;;;;5053501;28;20207;-76
2023/03/12 06:39:22;;;;;;;4.40;2.10;;;11.50;99.90;;;;;;5066684;28;20211;-79
2023/03/12 06:41:47;;;;;;;4.47;2.10;;;11.50;99.90;;;;;;5048845;28;20217;-78
2023/03/12 06:44:13;;;;;;;6.40;2.38;;;12.00;99.90;;;;;;5062453;28;20217;-78
2023/03/12 06:46:40;;;;;;;6.25;2.50;;;12.50;99.90;;;;;;5066586;28;20198;-78
2023/03/12 06:49:05;;;;;;;4.78;2.40;;;13.10;99.90;;;;;;5048123;28;20576;-79
2023/03/12 06:51:31;;;;;;;3.00;2.00;;;13.00;99.90;;;;;;5048952;28;20210;-77
2023/03/12 06:53:59;;;;;;;5.93;2.30;;;13.40;99.90;;;;;;5052958;28;20198;-79
2023/03/12 06:56:25;;;;;;;6.78;2.00;;;13.30;99.90;;;;;;5046680;28;20280;-79
2023/03/12 06:58:51;;;;;;;4.32;2.13;;;13.80;99.90;;;;;;5069530;28;20175;-79
2023/03/12 07:01:16;;;;;;;4.32;2.33;;;13.90;99.90;;;;;;5067505;28;20545;-78
2023/03/12 07:03:42;;;;;;;5.35;2.15;;;13.10;99.90;;;;;;5071600;28;20347;-79
2023/03/12 07:06:20;;;;;;;4.50;2.40;;;12.70;99.90;;;;;;5065535;28;20207;-78
2023/03/12 07:08:46;;;;;;;3.90;2.38;;;12.60;99.90;;;;;;5066120;28;20222;-75
2023/03/12 07:11:12;;;;;;;5.28;2.60;;;13.10;99.90;;;;;;5069165;28;20214;-78
2023/03/12 07:13:38;;;;;;;4.07;2.60;;;12.80;99.90;;;;;;5065318;28;20266;-78
2023/03/12 07:16:05;;;;;;;6.68;2.80;;;12.50;99.90;;;;;;5051194;28;20210;-79
2023/03/12 07:18:31;;;;;;;3.85;2.60;;;12.60;99.90;;;;;;5060656;28;20290;-79
2023/03/12 07:20:56;;;;;;;5.05;2.97;;;12.10;99.90;;;;;;5069951;28;20245;-78
2023/03/12 07:23:23;;;;;;;6.60;2.53;;;11.70;99.90;;;;;;5049994;28;20214;-78
2023/03/12 07:25:49;;;;;;;3.58;2.47;;;11.30;99.90;;;;;;5052410;28;20191;-78
2023/03/12 07:28:15;;;;;;;5.05;2.45;;;11.50;99.90;;;;;;5060999;28;20203;-79
2023/03/12 07:30:41;;;;;;;3.60;2.10;;;11.70;99.90;;;;;;5051902;28;20253;-78
2023/03/12 07:33:09;;;;;;;6.10;2.35;;;11.80;99.90;;;;;;5067573;28;20199;-78
2023/03/12 07:35:37;;;;;;;3.75;2.40;;;11.20;99.90;;;;;;5049375;28;20215;-78
2023/03/12 07:38:03;;;;;;;4.82;2.58;;;10.60;99.90;;;;;;5068208;28;20178;-78
2023/03/12 07:40:29;;;;;;;4.93;2.50;;;10.70;99.90;;;;;;5067835;28;20174;-78
2023/03/12 07:42:54;;;;;;;5.72;2.53;;;11.00;99.90;;;;;;5054317;28;20623;-78
2023/03/12 07:45:21;;;;;;;3.22;2.22;;;11.80;99.90;;;;;;5068858;28;20214;-79
2023/03/12 07:47:47;;;;;;;5.00;2.53;;;12.70;99.90;;;;;;5068460;28;20634;-76
2023/03/12 07:50:13;;;;;;;3.90;2.20;;;13.50;99.90;;;;;;5067938;28;20241;-77
2023/03/12 07:52:38;;;;;;;5.45;2.40;;;13.80;99.90;;;;;;5053889;28;20250;-78
2023/03/12 07:55:05;;;;;;;4.15;2.42;;;13.60;99.90;;;;;;5052360;28;20215;-78
2023/03/12 07:57:31;;;;;;;5.15;2.17;;;13.90;99.90;;;;;;5050619;28;20207;-78
2023/03/12 07:59:57;;;;;;;6.55;2.72;;;14.10;99.90;;;;;;5055590;28;20336;-78
2023/03/12 08:02:22;;;;;;;3.83;2.50;;;14.20;99.90;;;;;;5069639;28;20250;-78
2023/03/12 08:04:48;;;;;;;3.75;2.13;;;14.30;99.90;;;;;;5072341;28;20244;-79
2023/03/12 08:07:14;;;;;;;4.90;2.30;;;14.30;99.90;;;;;;5055566;28;20175;-78
2023/03/12 08:09:39;;;;;;;5.05;2.58;;;14.50;99.90;;;;;;5065519;28;20298;-78
2023/03/12 08:12:06;;;;;;;4.60;2.70;;;14.30;99.90;;;;;;5055644;28;20392;-78
2023/03/12 08:14:32;;;;;;;6.35;2.90;;;13.90;99.90;;;;;;5070605;28;20298;-78
2023/03/12 08:16:58;;;;;;;6.43;2.85;;;14.00;99.90;;;;;;5057967;28;20269;-77
2023/03/12 08:19:24;;;;;;;4.30;2.33;;;13.50;99.90;;;;;;5052875;28;20179;-78
2023/03/12 08:21:53;;;;;;;4.93;2.58;;;13.80;99.90;;;;;;5054800;28;20230;-78
2023/03/12 08:24:20;;;;;;;6.55;2.83;;;13.90;99.90;;;;;;5068698;28;20268;-78
2023/03/12 08:26:47;;;;;;;5.00;2.50;;;13.00;99.90;;;;;;5055205;28;20217;-76
2023/03/12 08:29:12;;;;;;;5.05;2.40;;;13.40;99.90;;;;;;5053946;28;20288;-77
2023/03/12 08:31:38;;;;;;;6.80;2.25;;;13.40;99.90;;;;;;5065105;28;20183;-76
2023/03/12 08:34:04;;;;;;;3.25;1.92;;;13.60;99.90;;;;;;5073406;28;20206;-77
2023/03/12 08:36:30;;;;;;;5.63;2.38;;;13.90;99.90;;;;;;5056927;28;20233;-79
2023/03/12 08:38:55;;;;;;;5.00;2.20;;;13.90;99.90;;;;;;5074104;28;20246;-79
2023/03/12 08:41:21;;;;;;;4.38;2.25;;;13.10;99.90;;;;;;5073591;28;20227;-79
2023/03/12 08:43:47;;;;;;;4.82;2.00;;;13.10;99.90;;;;;;5072005;28;20633;-78
2023/03/12 08:46:12;;;;;;;4.13;1.92;;;13.20;99.90;;;;;;5074955;28;20191;-78
2023/03/12 08:48:39;;;;;;;4.97;2.03;;;12.70;99.90;;;;;;5071653;28;20240;-77
2023/03/12 08:51:06;;;;;;;4.45;1.83;;;11.90;99.90;;;;;;5072448;28;20203;-79
2023/03/12 08:53:33;;;;;;;3.28;1.95;;;11.80;99.90;;;;;;5056377;28;20238;-79
2023/03/12 08:55:59;;;;;;;5.13;2.00;;;11.40;99.90;;;;;;5071911;28;20203;-80
2023/03/12 08:58:26;;;;;;;5.53;1.93;;;10.80;99.90;;;;;;5059198;28;20643;-79
2023/03/12 09:00:52;;;;;;;5.97;2.07;;;10.30;99.90;;;;;;5072811;28;20245;-79
2023/03/12 09:03:18;;;;;;;3.37;1.90;;;10.00;99.90;;;;;;5078059;28;20274;-79
2023/03/12 09:05:44;;;;;;;5.07;2.30;;;9.70;99.90;;;;;;5076687;28;20246;-80
2023/03/12 09:08:10;;;;;;;4.83;2.20;;;9.80;99.90;;;;;;5067605;28;20317;-79
2023/03/12 09:10:37;;;;;;;2.93;1.73;;;10.10;99.90;;;;;;5069419;28;20192;-77
2023/03/12 09:13:03;;;;;;;4.73;2.00;;;10.30;99.90;;;;;;5056695;28;20276;-79
2023/03/12 09:15:29;;;;;;;4.23;1.93;;;10.60;99.90;;;;;;5062735;28;20215;-77
2023/03/12 09:17:55;;;;;;;4.60;1.80;;;11.10;99.90;;;;;;5060849;28;20267;-79
2023/03/12 09:20:21;;;;;;;4.90;2.23;;;11.40;99.90;;;;;;5073655;28;20242;-79
2023/03/12 09:22:47;;;;;;;3.57;2.00;;;11.30;99.90;;;;;;5067720;28;20180;-78
2023/03/12 09:25:13;;;;;;;3.60;1.70;;;11.50;99.90;;;;;;5055453;28;20612;-77
2023/03/12 09:27:44;;;;;;;3.77;2.30;;;11.70;99.90;;;;;;5068611;28;20260;-79
2023/03/12 09:30:13;;;;;;;4.57;2.10;;;11.70;99.90;;;;;;5069910;28;20261;-78
2023/03/12 09:32:38;;;;;;;5.40;1.63;;;11.80;99.90;;;;;;5053351;28;20268;-79
2023/03/12 09:35:06;;;;;;;2.53;1.33;;;11.90;99.90;;;;;;5065922;28;20690;-79
2023/03/12 09:37:32;;;;;;;3.23;1.33;;;11.50;99.90;;;;;;5054868;28;20206;-77
2023/03/12 09:39:58;;;;;;;4.30;1.57;;;11.10;99.90;;;;;;5053473;28;20207;-77
2023/03/12 09:42:29;;;;;;;5.23;2.03;;;10.90;99.90;;;;;;5052528;28;20215;-79
2023/03/12 09:44:59;;;;;;;4.00;1.17;;;10.70;99.90;;;;;;5065428;28;20236;-79
2023/03/12 09:47:27;;;;;;;3.97;1.23;;;10.80;99.90;;;;;;5062236;28;20310;-78
2023/03/12 09:50:09;;;;;;;3.00;1.27;;;10.80;99.90;;;;;;5053167;28;20234;-78
2023/03/12 09:52:41;;;;;;;5.57;1.20;;;10.60;99.90;;;;;;5067939;28;20209;-79
2023/03/12 09:55:20;;;;;;;2.77;1.30;;;10.50;99.90;;;;;;5067444;28;20219;-77
2023/03/12 09:57:48;;;;;;;3.67;1.00;;;10.90;99.90;;;;;;5048938;28;20767;-77
2023/03/12 10:00:16;;;;;;;4.83;1.50;;;11.10;99.90;;;;;;5067657;28;20239;-78
2023/03/12 10:03:19;;;;;;;2.27;1.10;;;10.10;99.90;;;;;;5067844;28;20729;-79
2023/03/12 10:06:06;;;;;;;3.03;1.17;;;10.30;99.90;;;;;;5065834;28;20223;-79
2023/03/12 10:09:01;;;;;;;2.97;1.10;;;10.40;99.90;;;;;;5063647;28;20220;-77
2023/03/12 10:11:31;;;;;;;3.17;1.70;;;10.90;99.90;;;;;;5067384;28;20211;-79
2023/03/12 10:14:10;;;;;;;5.30;2.67;;;10.80;99.90;;;;;;5050915;28;20179;-78
2023/03/12 10:17:08;;;;;;;5.03;1.97;;;10.50;99.90;;;;;;5063785;28;20211;-79
2023/03/12 10:20:16;;;;;;;2.53;1.50;;;10.30;99.90;;;;;;5063834;28;20753;-78
2023/03/12 10:23:22;;;;;;;2.50;1.40;;;10.50;99.90;;;;;;5050390;28;20670;-78
2023/03/12 10:26:03;;;;;;;3.87;1.50;;;10.20;99.90;;;;;;5066622;28;20313;-79
2023/03/12 10:29:03;;;;;;;4.77;1.67;;;10.60;99.90;;;;;;5070054;28;20921;-77
2023/03/12 10:31:45;;;;;;;4.70;1.60;;;11.10;99.90;;;;;;5057522;28;20212;-79
2023/03/12 10:34:28;;;;;;;2.77;1.43;;;11.00;99.90;;;;;;5062036;28;20207;-77
2023/03/12 10:37:03;;;;;;;4.83;1.50;;;10.80;99.90;;;;;;5037869;28;20206;-78
2023/03/12 10:39:29;;;;;;;6.43;2.07;;;10.70;99.90;;;;;;5055459;28;20654;-77
2023/03/12 10:41:55;;;;;;;3.63;1.77;;;10.10;99.90;;;;;;5052866;28;20214;-79
2023/03/12 10:44:24;;;;;;;6.37;1.50;;;10.30;99.90;;;;;;5059392;28;20325;-78
2023/03/12 10:47:24;;;;;;;1.70;1.33;;;10.40;99.90;;;;;;5066698;28;20187;-76
2023/03/12 10:49:51;;;;;;;4.57;1.97;;;10.80;99.90;;;;;;5068980;28;20230;-78
2023/03/12 10:52:19;;;;;;;4.37;2.47;;;10.90;99.90;;;;;;5079347;28;20178;-78
2023/03/12 10:54:48;;;;;;;3.40;1.00;;;10.30;99.90;;;;;;5076015;28;20218;-77
2023/03/12 10:57:14;;;;;;;2.60;1.10;;;10.00;99.90;;;;;;5070177;28;20291;-78
2023/03/12 10:59:44;;;;;;;5.63;1.50;;;9.90;99.90;;;;;;5069749;28;20219;-78
2023/03/12 11:02:33;;;;;;;3.90;1.40;;;10.00;99.90;;;;;;5047364;28;20208;-78
2023/03/12 11:05:01;;;;;;;4.33;1.30;;;10.50;99.90;;;;;;5055628;28;20590;-76
2023/03/12 11:07:32;;;;;;;3.40;1.60;;;10.60;99.90;;;;;;5062968;28;20668;-78
2023/03/12 11:10:25;;;;;;;4.67;1.40;;;10.80;99.90;;;;;;5052960;28;20268;-77
2023/03/12 11:12:53;;;;;;;4.57;1.53;;;10.70;99.90;;;;;;5049471;28;20207;-78
2023/03/12 11:15:23;;;;;;;6.03;2.60;;;10.20;99.90;;;;;;5069496;28;20230;-79
2023/03/12 11:17:49;;;;;;;4.93;1.43;;;9.90;99.90;;;;;;5053940;28;20213;-76
2023/03/12 11:20:32;;;;;;;4.70;1.70;;;10.10;99.90;;;;;;5071738;28;20206;-78
2023/03/12 11:23:16;;;;;;;5.67;1.93;;;10.10;99.90;;;;;;5076106;28;20194;-79
2023/03/12 11:25:42;;;;;;;4.93;1.60;;;9.80;99.90;;;;;;5074932;28;20191;-78
2023/03/12 11:28:17;;;;;;;6.13;1.67;;;10.30;99.90;;;;;;5076218;28;20214;-78
2023/03/12 11:30:43;;;;;;;4.23;1.87;;;10.60;99.90;;;;;;5066525;28;20265;-79
2023/03/12 11:33:11;;;;;;;3.40;1.60;;;10.50;99.90;;;;;;5070433;28;20207;-80
2023/03/12 11:36:05;;;;;;;5.20;1.60;;;10.60;99.90;;;;;;5047593;28;20324;-75
2023/03/12 11:38:42;;;;;;;5.03;1.57;;;10.50;99.90;;;;;;5063520;28;20290;-79
2023/03/12 11:41:13;;;;;;;7.67;3.37;;;10.10;99.90;;;;;;5064571;28;20222;-77
2023/03/12 11:44:10;;;;;;;7.27;3.07;;;9.90;99.90;;;;;;5071325;28;20210;-76
2023/03/12 11:46:43;;;;;;;15.00;7.53;;;10.10;99.90;;;;;;5066203;28;20260;-76
2023/03/12 11:49:18;;;;;;;5.50;2.10;;;10.20;99.90;;;;;;5039473;28;20261;-81
2023/03/12 11:51:44;;;;;;;5.87;2.03;;;9.90;99.90;;;;;;5061271;28;20211;-79
2023/03/12 11:54:27;;;;;;;5.13;1.90;;;9.50;99.90;;;;;;5068523;28;20681;-78
2023/03/12 11:57:05;;;;;;;4.33;2.00;;;9.50;99.90;;;;;;5070058;28;20219;-77
2023/03/12 11:59:54;;;;;;;4.17;2.40;;;9.60;99.90;;;;;;5073416;28;20213;-83
2023/03/12 12:02:46;;;;;;;8.23;2.23;;;9.50;99.90;;;;;;5050478;28;20211;-82
2023/03/12 12:05:37;;;;;;;4.97;2.60;;;9.40;99.90;;;;;;5053047;28;20217;-82
2023/03/12 12:08:35;;;;;;;5.77;1.77;;;9.80;99.90;;;;;;5060383;28;20174;-80
2023/03/12 12:11:14;;;;;;;6.37;2.07;;;9.40;99.90;;;;;;5065788;28;20175;-80
2023/03/12 12:14:02;;;;;;;6.07;1.97;;;8.90;99.90;;;;;;5058126;28;20201;-81
2023/03/12 12:16:49;;;;;;;5.87;2.10;;;9.10;99.90;;;;;;5066948;28;20239;-82
2023/03/12 12:19:36;;;;;;;4.00;1.37;;;9.20;99.90;;;;;;5064882;28;20216;-82
2023/03/12 12:22:17;;;;;;;2.67;1.77;;;8.60;99.90;;;;;;5055859;28;20211;-82
2023/03/12 12:25:11;;;;;;;5.00;1.80;;;8.20;99.90;;;;;;5056315;28;20222;-78
2023/03/12 12:27:52;;;;;;;4.60;1.63;;;8.20;99.90;;;;;;5073723;28;20250;-79
2023/03/12 12:30:52;;;;;;;7.97;2.77;;;8.80;99.90;;;;;;5071581;28;20219;-78
2023/03/12 12:33:26;;;;;;;5.33;2.20;;;8.70;99.90;;;;;;5031726;28;20232;-79
2023/03/12 12:35:52;;;;;;;3.33;2.00;;;8.70;99.90;;;;;;5073747;28;20223;-80
2023/03/12 12:38:29;;;;;;;4.90;2.00;;;8.40;99.90;;;;;;5057852;28;20727;-78
2023/03/12 12:41:22;;;;;;;4.00;2.10;;;8.60;99.90;;;;;;5064553;28;20664;-79
2023/03/12 12:43:49;;;;;;;4.17;2.17;;;8.40;99.90;;;;;;5076485;28;20693;-82
2023/03/12 12:46:44;;;;;;;7.00;2.40;;;7.90;99.90;;;;;;5054665;28;20206;-81
2023/03/12 12:49:26;;;;;;;5.23;2.07;;;7.90;99.90;;;;;;5047602;28;20207;-82
2023/03/12 12:52:05;;;;;;;3.43;1.87;;;8.40;99.90;;;;;;5070184;28;20203;-83
2023/03/12 12:54:36;;;;;;;5.33;1.60;;;8.40;98.50;;;;;;5049514;28;20206;-81
2023/03/12 12:57:34;;;;;;;4.53;1.90;;;8.40;96.30;;;;;;5049775;28;20739;-82
2023/03/12 13:00:11;;;;;;;6.17;1.87;;;8.50;97.20;;;;;;5056291;28;20191;-82
2023/03/12 13:02:40;;;;;;;4.47;1.80;;;8.60;97.40;;;;;;5047346;28;20203;-81
2023/03/12 13:05:35;;;;;;;3.50;1.90;;;8.80;97.80;;;;;;5060505;28;20215;-82
2023/03/12 13:08:01;;;;;;;2.70;1.60;;;8.80;97.40;;;;;;5065358;28;20171;-80